sensor_id;sensor_type;location;lat;lon;timestamp;pressure;altitude;pressure_sealevel;temperature;humidity
62655;BME280;48717;55.556;37.816;2023-02-19T00:01:54;97903.81;;;-8.86;84.45
62655;BME280;48717;55.556;37.816;2023-02-19T00:04:21;97888.22;;;-8.93;84.61
62655;BME280;48717;55.556;37.816;2023-02-19T00:06:49;97906.22;;;-8.89;85.79
62655;BME280;48717;55.556;37.816;2023-02-19T00:09:18;97898.44;;;-8.93;86.15
62655;BME280;48717;55.556;37.816;2023-02-19T00:11:46;97905.56;;;-8.85;85.97
62655;BME280;48717;55.556;37.816;2023-02-19T00:14:16;97897.09;;;-8.84;85.57
62655;BME280;48717;55.556;37.816;2023-02-19T00:16:43;97910.66;;;-8.85;86.27
62655;BME280;48717;55.556;37.816;2023-02-19T00:19:13;97884.72;;;-8.95;86.14
62655;BME280;48717;55.556;37.816;2023-02-19T00:21:41;97900.19;;;-8.92;86.11
62655;BME280;48717;55.556;37.816;2023-02-19T00:24:10;97889.97;;;-8.92;87.15
62655;BME280;48717;55.556;37.816;2023-02-19T00:26:38;97894.25;;;-8.91;86.82
62655;BME280;48717;55.556;37.816;2023-02-19T00:29:08;97879.25;;;-9.02;87.14
62655;BME280;48717;55.556;37.816;2023-02-19T00:31:35;97861.84;;;-9.11;86.41
62655;BME280;48717;55.556;37.816;2023-02-19T00:34:04;97886.47;;;-8.94;87.48
62655;BME280;48717;55.556;37.816;2023-02-19T00:36:33;97860.38;;;-9.06;86.66
62655;BME280;48717;55.556;37.816;2023-02-19T00:39:03;97883.78;;;-8.97;86.94
62655;BME280;48717;55.556;37.816;2023-02-19T00:41:31;97853.25;;;-9.13;86.73
62655;BME280;48717;55.556;37.816;2023-02-19T00:44:00;97867.38;;;-9.02;87.11
62655;BME280;48717;55.556;37.816;2023-02-19T00:46:31;97869.25;;;-8.98;86.79
62655;BME280;48717;55.556;37.816;2023-02-19T00:48:59;97874.50;;;-8.95;87.63
62655;BME280;48717;55.556;37.816;2023-02-19T00:51:29;97863.06;;;-9.03;87.25
62655;BME280;48717;55.556;37.816;2023-02-19T00:53:57;97852.66;;;-9.08;87.03
62655;BME280;48717;55.556;37.816;2023-02-19T00:56:25;97856.28;;;-9.02;86.94
62655;BME280;48717;55.556;37.816;2023-02-19T00:58:52;97871.16;;;-8.94;87.39
62655;BME280;48717;55.556;37.816;2023-02-19T01:01:19;97843.31;;;-9.07;87.12
62655;BME280;48717;55.556;37.816;2023-02-19T01:03:47;97810.66;;;-9.14;88.05
62655;BME280;48717;55.556;37.816;2023-02-19T01:06:15;97845.16;;;-9.03;86.94
62655;BME280;48717;55.556;37.816;2023-02-19T01:08:43;97859.31;;;-8.92;86.98
62655;BME280;48717;55.556;37.816;2023-02-19T01:11:10;97831.22;;;-9.11;87.13
62655;BME280;48717;55.556;37.816;2023-02-19T01:13:40;97840.06;;;-9.03;87.53
62655;BME280;48717;55.556;37.816;2023-02-19T01:16:12;97837.13;;;-8.93;87.95
62655;BME280;48717;55.556;37.816;2023-02-19T01:18:40;97859.06;;;-8.98;87.25
62655;BME280;48717;55.556;37.816;2023-02-19T01:21:11;97844.66;;;-8.96;87.76
62655;BME280;48717;55.556;37.816;2023-02-19T01:23:38;97844.56;;;-8.97;87.73
62655;BME280;48717;55.556;37.816;2023-02-19T01:26:08;97802.84;;;-9.18;88.21
62655;BME280;48717;55.556;37.816;2023-02-19T01:28:35;97847.19;;;-8.96;88.38
62655;BME280;48717;55.556;37.816;2023-02-19T01:31:04;97808.09;;;-9.14;88.08
62655;BME280;48717;55.556;37.816;2023-02-19T01:33:32;97830.97;;;-8.98;87.60
62655;BME280;48717;55.556;37.816;2023-02-19T01:36:03;97832.63;;;-8.98;87.77
62655;BME280;48717;55.556;37.816;2023-02-19T01:38:30;97819.78;;;-9.00;87.80
62655;BME280;48717;55.556;37.816;2023-02-19T01:41:03;97823.06;;;-9.02;88.18
62655;BME280;48717;55.556;37.816;2023-02-19T01:43:34;97796.91;;;-9.17;88.06
62655;BME280;48717;55.556;37.816;2023-02-19T01:46:20;97795.84;;;-9.22;87.61
62655;BME280;48717;55.556;37.816;2023-02-19T01:48:51;97810.91;;;-9.08;87.37
62655;BME280;48717;55.556;37.816;2023-02-19T01:51:19;97819.78;;;-9.00;88.03
62655;BME280;48717;55.556;37.816;2023-02-19T01:53:51;97787.38;;;-9.21;88.01
62655;BME280;48717;55.556;37.816;2023-02-19T01:56:20;97818.03;;;-9.01;87.27
62655;BME280;48717;55.556;37.816;2023-02-19T01:58:48;97819.78;;;-9.00;87.82
62655;BME280;48717;55.556;37.816;2023-02-19T02:01:15;97793.69;;;-9.12;87.28
62655;BME280;48717;55.556;37.816;2023-02-19T02:03:45;97815.56;;;-8.99;87.87
62655;BME280;48717;55.556;37.816;2023-02-19T02:06:33;97776.50;;;-9.17;87.06
62655;BME280;48717;55.556;37.816;2023-02-19T02:09:02;97826.63;;;-8.99;87.61
62655;BME280;48717;55.556;37.816;2023-02-19T02:11:50;97791.16;;;-9.12;87.00
62655;BME280;48717;55.556;37.816;2023-02-19T02:14:19;97813.94;;;-8.97;87.27
62655;BME280;48717;55.556;37.816;2023-02-19T02:23:32;97807.31;;;-8.94;87.47
62655;BME280;48717;55.556;37.816;2023-02-19T02:34:52;97799.19;;;-9.03;86.84
62655;BME280;48717;55.556;37.816;2023-02-19T02:37:24;97813.34;;;-8.92;87.20
62655;BME280;48717;55.556;37.816;2023-02-19T02:39:56;97804.59;;;-8.97;87.04
62655;BME280;48717;55.556;37.816;2023-02-19T02:42:24;97786.50;;;-9.01;86.65
62655;BME280;48717;55.556;37.816;2023-02-19T02:48:23;97792.66;;;-8.98;87.33
62655;BME280;48717;55.556;37.816;2023-02-19T02:56:49;97771.81;;;-9.07;87.00
62655;BME280;48717;55.556;37.816;2023-02-19T02:59:21;97792.91;;;-8.92;86.71
62655;BME280;48717;55.556;37.816;2023-02-19T03:01:56;97736.28;;;-9.22;86.98
62655;BME280;48717;55.556;37.816;2023-02-19T03:04:52;97790.47;;;-8.88;86.72
62655;BME280;48717;55.556;37.816;2023-02-19T03:07:46;97782.69;;;-8.92;87.33
62655;BME280;48717;55.556;37.816;2023-02-19T03:10:19;97740.00;;;-9.14;86.37
62655;BME280;48717;55.556;37.816;2023-02-19T03:12:49;97719.94;;;-9.26;87.09
62655;BME280;48717;55.556;37.816;2023-02-19T03:16:05;97777.56;;;-8.92;86.29
62655;BME280;48717;55.556;37.816;2023-02-19T03:18:55;97762.09;;;-8.95;87.21
62655;BME280;48717;55.556;37.816;2023-02-19T03:21:48;97763.72;;;-8.97;86.69
62655;BME280;48717;55.556;37.816;2023-02-19T03:24:20;97770.84;;;-8.89;87.45
62655;BME280;48717;55.556;37.816;2023-02-19T03:27:09;97771.66;;;-8.91;86.31
62655;BME280;48717;55.556;37.816;2023-02-19T03:29:43;97758.63;;;-8.97;87.15
62655;BME280;48717;55.556;37.816;2023-02-19T03:32:26;97772.59;;;-8.88;87.44
62655;BME280;48717;55.556;37.816;2023-02-19T03:35:01;97767.22;;;-8.95;87.63
62655;BME280;48717;55.556;37.816;2023-02-19T03:37:36;97774.19;;;-8.91;87.28
62655;BME280;48717;55.556;37.816;2023-02-19T03:40:07;97762.00;;;-8.98;87.20
62655;BME280;48717;55.556;37.816;2023-02-19T03:42:41;97754.50;;;-8.93;87.52
62655;BME280;48717;55.556;37.816;2023-02-19T03:47:53;97733.22;;;-9.13;87.58
62655;BME280;48717;55.556;37.816;2023-02-19T03:53:26;97752.03;;;-8.92;87.56
62655;BME280;48717;55.556;37.816;2023-02-19T03:56:09;97744.88;;;-9.00;88.19
62655;BME280;48717;55.556;37.816;2023-02-19T04:01:18;97720.78;;;-9.06;88.21
62655;BME280;48717;55.556;37.816;2023-02-19T04:03:56;97757.63;;;-9.00;87.74
62655;BME280;48717;55.556;37.816;2023-02-19T04:06:28;97705.56;;;-9.24;88.60
62655;BME280;48717;55.556;37.816;2023-02-19T04:09:00;97690.03;;;-9.28;87.91
62655;BME280;48717;55.556;37.816;2023-02-19T04:11:29;97744.78;;;-9.02;87.68
62655;BME280;48717;55.556;37.816;2023-02-19T04:17:03;97756.88;;;-8.98;88.35
62655;BME280;48717;55.556;37.816;2023-02-19T04:19:34;97742.31;;;-9.00;87.53
62655;BME280;48717;55.556;37.816;2023-02-19T04:22:05;97750.81;;;-9.00;88.05
62655;BME280;48717;55.556;37.816;2023-02-19T04:24:40;97739.69;;;-9.02;87.66
62655;BME280;48717;55.556;37.816;2023-02-19T04:27:09;97745.56;;;-9.03;87.96
62655;BME280;48717;55.556;37.816;2023-02-19T04:29:37;97745.72;;;-9.00;88.74
62655;BME280;48717;55.556;37.816;2023-02-19T04:32:05;97742.91;;;-9.06;88.35
62655;BME280;48717;55.556;37.816;2023-02-19T04:34:33;97675.81;;;-9.43;88.83
62655;BME280;48717;55.556;37.816;2023-02-19T04:37:03;97727.22;;;-9.14;88.88
62655;BME280;48717;55.556;37.816;2023-02-19T04:39:31;97744.56;;;-9.07;89.07
62655;BME280;48717;55.556;37.816;2023-02-19T04:41:58;97698.50;;;-9.29;88.82
62655;BME280;48717;55.556;37.816;2023-02-19T04:44:25;97723.00;;;-9.13;89.14
62655;BME280;48717;55.556;37.816;2023-02-19T04:46:52;97732.41;;;-9.12;89.24
62655;BME280;48717;55.556;37.816;2023-02-19T04:49:19;97656.75;;;-9.51;89.32
62655;BME280;48717;55.556;37.816;2023-02-19T04:51:46;97741.28;;;-9.04;89.39
62655;BME280;48717;55.556;37.816;2023-02-19T04:54:14;97742.16;;;-9.03;89.35
62655;BME280;48717;55.556;37.816;2023-02-19T04:56:41;97737.91;;;-9.03;89.24
62655;BME280;48717;55.556;37.816;2023-02-19T04:59:08;97715.09;;;-9.20;89.38
62655;BME280;48717;55.556;37.816;2023-02-19T05:01:35;97733.63;;;-9.04;89.49
62655;BME280;48717;55.556;37.816;2023-02-19T05:04:03;97731.94;;;-9.03;89.44
62655;BME280;48717;55.556;37.816;2023-02-19T05:06:31;97731.06;;;-9.04;89.47
62655;BME280;48717;55.556;37.816;2023-02-19T05:08:58;97726.78;;;-9.05;89.38
62655;BME280;48717;55.556;37.816;2023-02-19T05:11:25;97680.72;;;-9.28;89.47
62655;BME280;48717;55.556;37.816;2023-02-19T05:13:54;97685.81;;;-9.28;89.69
62655;BME280;48717;55.556;37.816;2023-02-19T05:16:22;97664.25;;;-9.35;89.76
62655;BME280;48717;55.556;37.816;2023-02-19T05:18:53;97685.97;;;-9.25;89.32
62655;BME280;48717;55.556;37.816;2023-02-19T05:21:20;97680.72;;;-9.28;89.27
62655;BME280;48717;55.556;37.816;2023-02-19T05:23:47;97721.59;;;-9.07;90.03
62655;BME280;48717;55.556;37.816;2023-02-19T05:26:17;97719.38;;;-8.99;90.08
62655;BME280;48717;55.556;37.816;2023-02-19T05:28:47;97719.25;;;-9.02;89.41
62655;BME280;48717;55.556;37.816;2023-02-19T05:31:14;97719.50;;;-8.96;89.35
62655;BME280;48717;55.556;37.816;2023-02-19T05:33:42;97709.41;;;-8.93;89.14
62655;BME280;48717;55.556;37.816;2023-02-19T05:36:12;97712.78;;;-8.94;88.87
62655;BME280;48717;55.556;37.816;2023-02-19T05:38:39;97714.63;;;-8.89;89.23
62655;BME280;48717;55.556;37.816;2023-02-19T05:41:16;97713.97;;;-8.85;88.41
62655;BME280;48717;55.556;37.816;2023-02-19T05:43:45;97715.66;;;-8.86;88.52
62655;BME280;48717;55.556;37.816;2023-02-19T05:46:14;97687.25;;;-8.94;88.68
62655;BME280;48717;55.556;37.816;2023-02-19T05:48:41;97706.44;;;-8.82;88.73
62655;BME280;48717;55.556;37.816;2023-02-19T05:51:11;97703.94;;;-8.81;87.99
62655;BME280;48717;55.556;37.816;2023-02-19T05:53:39;97700.56;;;-8.80;87.79
62655;BME280;48717;55.556;37.816;2023-02-19T05:56:33;97706.81;;;-8.73;88.37
62655;BME280;48717;55.556;37.816;2023-02-19T05:59:04;97682.75;;;-8.78;88.44
62655;BME280;48717;55.556;37.816;2023-02-19T06:01:33;97701.84;;;-8.70;87.71
62655;BME280;48717;55.556;37.816;2023-02-19T06:04:00;97654.97;;;-8.92;87.58
62655;BME280;48717;55.556;37.816;2023-02-19T06:06:27;97691.84;;;-8.63;87.37
62655;BME280;48717;55.556;37.816;2023-02-19T06:08:55;97692.81;;;-8.61;86.46
62655;BME280;48717;55.556;37.816;2023-02-19T06:11:23;97687.69;;;-8.61;86.46
62655;BME280;48717;55.556;37.816;2023-02-19T06:13:50;97688.88;;;-8.53;86.35
62655;BME280;48717;55.556;37.816;2023-02-19T06:16:17;97651.19;;;-8.80;86.04
62655;BME280;48717;55.556;37.816;2023-02-19T06:18:45;97709.66;;;-8.44;86.49
62655;BME280;48717;55.556;37.816;2023-02-19T06:21:16;97695.13;;;-8.45;85.00
62655;BME280;48717;55.556;37.816;2023-02-19T06:23:50;97688.38;;;-8.43;85.73
62655;BME280;48717;55.556;37.816;2023-02-19T06:26:22;97696.25;;;-8.38;86.15
62655;BME280;48717;55.556;37.816;2023-02-19T06:28:51;97693.88;;;-8.33;85.75
62655;BME280;48717;55.556;37.816;2023-02-19T06:31:20;97694.69;;;-8.34;85.84
62655;BME280;48717;55.556;37.816;2023-02-19T06:33:48;97701.38;;;-8.38;85.73
62655;BME280;48717;55.556;37.816;2023-02-19T06:36:18;97625.88;;;-8.74;84.79
62655;BME280;48717;55.556;37.816;2023-02-19T06:38:46;97687.69;;;-8.39;85.05
62655;BME280;48717;55.556;37.816;2023-02-19T06:41:13;97686.06;;;-8.36;84.58
62655;BME280;48717;55.556;37.816;2023-02-19T06:43:40;97677.47;;;-8.39;84.44
62655;BME280;48717;55.556;37.816;2023-02-19T06:46:09;97592.28;;;-8.83;84.48
62655;BME280;48717;55.556;37.816;2023-02-19T06:48:37;97664.00;;;-8.34;84.98
62655;BME280;48717;55.556;37.816;2023-02-19T06:51:05;97622.91;;;-8.62;85.71
62655;BME280;48717;55.556;37.816;2023-02-19T06:53:32;97672.09;;;-8.23;84.52
62655;BME280;48717;55.556;37.816;2023-02-19T06:56:02;97672.38;;;-8.16;84.53
62655;BME280;48717;55.556;37.816;2023-02-19T06:58:31;97675.13;;;-8.11;83.86
62655;BME280;48717;55.556;37.816;2023-02-19T07:00:58;97668.56;;;-8.04;83.76
62655;BME280;48717;55.556;37.816;2023-02-19T07:03:25;97680.75;;;-7.97;84.15
62655;BME280;48717;55.556;37.816;2023-02-19T07:05:52;97626.91;;;-8.23;82.84
62655;BME280;48717;55.556;37.816;2023-02-19T07:08:20;97654.25;;;-7.99;83.74
62655;BME280;48717;55.556;37.816;2023-02-19T07:10:57;97655.50;;;-7.88;82.53
62655;BME280;48717;55.556;37.816;2023-02-19T07:13:28;97662.72;;;-7.77;82.08
62655;BME280;48717;55.556;37.816;2023-02-19T07:16:04;97664.25;;;-7.82;82.53
62655;BME280;48717;55.556;37.816;2023-02-19T07:18:38;97661.00;;;-7.78;81.70
62655;BME280;48717;55.556;37.816;2023-02-19T07:21:15;97648.66;;;-7.89;81.60
62655;BME280;48717;55.556;37.816;2023-02-19T07:23:44;97640.06;;;-7.91;81.09
62655;BME280;48717;55.556;37.816;2023-02-19T07:26:13;97647.38;;;-7.77;80.67
62655;BME280;48717;55.556;37.816;2023-02-19T07:28:46;97649.94;;;-7.77;82.17
62655;BME280;48717;55.556;37.816;2023-02-19T07:31:14;97648.19;;;-7.78;81.04
62655;BME280;48717;55.556;37.816;2023-02-19T07:33:43;97647.03;;;-7.87;81.19
62655;BME280;48717;55.556;37.816;2023-02-19T07:36:10;97660.16;;;-7.77;80.80
62655;BME280;48717;55.556;37.816;2023-02-19T07:38:58;97648.28;;;-7.75;82.06
62655;BME280;48717;55.556;37.816;2023-02-19T07:41:26;97631.06;;;-7.79;82.09
62655;BME280;48717;55.556;37.816;2023-02-19T07:43:56;97650.06;;;-7.74;80.87
62655;BME280;48717;55.556;37.816;2023-02-19T07:46:23;97645.50;;;-7.81;81.68
62655;BME280;48717;55.556;37.816;2023-02-19T07:48:50;97644.56;;;-7.83;81.84
62655;BME280;48717;55.556;37.816;2023-02-19T07:51:18;97632.84;;;-7.78;82.12
62655;BME280;48717;55.556;37.816;2023-02-19T07:53:46;97640.66;;;-7.74;83.30
62655;BME280;48717;55.556;37.816;2023-02-19T07:56:14;97635.59;;;-7.72;82.39
62655;BME280;48717;55.556;37.816;2023-02-19T07:58:42;97627.72;;;-7.78;82.39
62655;BME280;48717;55.556;37.816;2023-02-19T08:01:17;97611.22;;;-7.87;82.48
62655;BME280;48717;55.556;37.816;2023-02-19T08:03:45;97602.25;;;-7.98;82.52
62655;BME280;48717;55.556;37.816;2023-02-19T08:06:15;97609.41;;;-7.89;83.36
62655;BME280;48717;55.556;37.816;2023-02-19T08:08:42;97609.91;;;-7.75;81.85
62655;BME280;48717;55.556;37.816;2023-02-19T08:11:09;97628.25;;;-7.63;82.27
62655;BME280;48717;55.556;37.816;2023-02-19T08:14:02;97584.88;;;-7.84;81.68
62655;BME280;48717;55.556;37.816;2023-02-19T08:16:30;97636.13;;;-7.56;81.37
62655;BME280;48717;55.556;37.816;2023-02-19T08:19:08;97601.69;;;-7.66;82.51
62655;BME280;48717;55.556;37.816;2023-02-19T08:21:35;97593.19;;;-7.65;82.74
62655;BME280;48717;55.556;37.816;2023-02-19T08:24:03;97615.00;;;-7.51;81.46
62655;BME280;48717;55.556;37.816;2023-02-19T08:26:31;97622.25;;;-7.39;81.43
62655;BME280;48717;55.556;37.816;2023-02-19T08:28:59;97610.06;;;-7.46;81.57
62655;BME280;48717;55.556;37.816;2023-02-19T08:31:26;97612.75;;;-7.43;81.32
62655;BME280;48717;55.556;37.816;2023-02-19T08:33:53;97590.69;;;-7.64;81.74
62655;BME280;48717;55.556;37.816;2023-02-19T08:36:20;97611.41;;;-7.56;82.01
62655;BME280;48717;55.556;37.816;2023-02-19T08:38:47;97603.69;;;-7.57;81.64
62655;BME280;48717;55.556;37.816;2023-02-19T08:41:15;97599.97;;;-7.66;81.65
62655;BME280;48717;55.556;37.816;2023-02-19T08:43:46;97594.78;;;-7.69;81.51
62655;BME280;48717;55.556;37.816;2023-02-19T08:46:13;97614.16;;;-7.51;82.59
62655;BME280;48717;55.556;37.816;2023-02-19T08:48:40;97611.84;;;-7.43;82.11
62655;BME280;48717;55.556;37.816;2023-02-19T08:51:09;97605.06;;;-7.43;81.71
62655;BME280;48717;55.556;37.816;2023-02-19T08:53:38;97581.34;;;-7.37;81.34
62655;BME280;48717;55.556;37.816;2023-02-19T08:56:12;97600.38;;;-7.29;81.86
62655;BME280;48717;55.556;37.816;2023-02-19T08:58:40;97585.91;;;-7.28;81.99
62655;BME280;48717;55.556;37.816;2023-02-19T09:01:13;97574.41;;;-7.40;81.27
62655;BME280;48717;55.556;37.816;2023-02-19T09:03:41;97592.66;;;-7.30;80.58
62655;BME280;48717;55.556;37.816;2023-02-19T09:06:17;97584.94;;;-7.32;81.13
62655;BME280;48717;55.556;37.816;2023-02-19T09:08:45;97584.25;;;-7.26;81.35
62655;BME280;48717;55.556;37.816;2023-02-19T09:11:12;97562.81;;;-7.30;80.71
62655;BME280;48717;55.556;37.816;2023-02-19T09:13:40;97583.47;;;-7.24;80.27
62655;BME280;48717;55.556;37.816;2023-02-19T09:16:23;97554.47;;;-7.50;80.35
62655;BME280;48717;55.556;37.816;2023-02-19T09:19:00;97575.34;;;-7.38;81.11
62655;BME280;48717;55.556;37.816;2023-02-19T09:21:27;97576.97;;;-7.40;80.57
62655;BME280;48717;55.556;37.816;2023-02-19T09:23:54;97578.63;;;-7.42;81.54
62655;BME280;48717;55.556;37.816;2023-02-19T09:26:21;97507.47;;;-7.78;81.43
62655;BME280;48717;55.556;37.816;2023-02-19T09:28:49;97564.03;;;-7.44;81.67
62655;BME280;48717;55.556;37.816;2023-02-19T09:31:16;97557.22;;;-7.44;82.00
62655;BME280;48717;55.556;37.816;2023-02-19T09:33:45;97563.34;;;-7.39;81.65
62655;BME280;48717;55.556;37.816;2023-02-19T09:36:14;97562.97;;;-7.25;81.81
62655;BME280;48717;55.556;37.816;2023-02-19T09:38:42;97566.50;;;-7.22;81.29
62655;BME280;48717;55.556;37.816;2023-02-19T09:41:29;97556.09;;;-7.26;81.21
62655;BME280;48717;55.556;37.816;2023-02-19T09:43:57;97558.56;;;-7.29;81.79
62655;BME280;48717;55.556;37.816;2023-02-19T09:49:01;97560.59;;;-7.19;82.02
62655;BME280;48717;55.556;37.816;2023-02-19T09:51:31;97553.69;;;-7.22;81.07
62655;BME280;48717;55.556;37.816;2023-02-19T09:54:03;97553.63;;;-7.23;81.33
62655;BME280;48717;55.556;37.816;2023-02-19T09:56:32;97517.19;;;-7.42;81.40
62655;BME280;48717;55.556;37.816;2023-02-19T09:59:00;97536.00;;;-7.40;80.52
62655;BME280;48717;55.556;37.816;2023-02-19T10:01:31;97523.94;;;-7.44;81.29
62655;BME280;48717;55.556;37.816;2023-02-19T10:04:02;97521.22;;;-7.49;81.86
62655;BME280;48717;55.556;37.816;2023-02-19T10:06:31;97535.00;;;-7.45;82.44
62655;BME280;48717;55.556;37.816;2023-02-19T10:09:22;97539.50;;;-7.38;81.63
62655;BME280;48717;55.556;37.816;2023-02-19T10:11:57;97536.22;;;-7.34;83.33
62655;BME280;48717;55.556;37.816;2023-02-19T10:14:38;97526.38;;;-7.21;82.25
62655;BME280;48717;55.556;37.816;2023-02-19T10:17:16;97508.41;;;-7.23;82.28
62655;BME280;48717;55.556;37.816;2023-02-19T10:19:47;97522.72;;;-7.02;80.57
62655;BME280;48717;55.556;37.816;2023-02-19T10:22:14;97513.16;;;-7.08;80.50
62655;BME280;48717;55.556;37.816;2023-02-19T10:25:42;97529.00;;;-6.92;78.85
62655;BME280;48717;55.556;37.816;2023-02-19T10:28:19;97537.69;;;-6.87;79.68
62655;BME280;48717;55.556;37.816;2023-02-19T10:30:52;97537.06;;;-6.79;78.99
62655;BME280;48717;55.556;37.816;2023-02-19T10:33:20;97508.59;;;-6.89;78.35
62655;BME280;48717;55.556;37.816;2023-02-19T10:36:09;97526.38;;;-6.66;78.44
62655;BME280;48717;55.556;37.816;2023-02-19T10:38:46;97499.19;;;-6.88;78.04
62655;BME280;48717;55.556;37.816;2023-02-19T10:41:27;97504.28;;;-6.90;78.06
62655;BME280;48717;55.556;37.816;2023-02-19T10:44:13;97536.63;;;-6.66;78.12
62655;BME280;48717;55.556;37.816;2023-02-19T10:46:43;97508.06;;;-6.78;78.25
62655;BME280;48717;55.556;37.816;2023-02-19T10:49:23;97529.75;;;-6.67;77.43
62655;BME280;48717;55.556;37.816;2023-02-19T10:51:54;97531.00;;;-6.54;78.67
62655;BME280;48717;55.556;37.816;2023-02-19T10:54:31;97524.44;;;-6.44;78.99
62655;BME280;48717;55.556;37.816;2023-02-19T11:00:41;97524.13;;;-6.24;77.09
62655;BME280;48717;55.556;37.816;2023-02-19T11:02:49;97524.06;;;-6.27;76.81
62655;BME280;48717;55.556;37.816;2023-02-19T11:05:19;97510.78;;;-6.14;76.41
62655;BME280;48717;55.556;37.816;2023-02-19T11:10:31;97513.63;;;-5.69;74.74
62655;BME280;48717;55.556;37.816;2023-02-19T11:13:01;97514.84;;;-5.55;74.95
62655;BME280;48717;55.556;37.816;2023-02-19T11:15:34;97505.00;;;-5.38;73.09
62655;BME280;48717;55.556;37.816;2023-02-19T11:18:25;97514.88;;;-5.19;71.87
62655;BME280;48717;55.556;37.816;2023-02-19T11:20:58;97517.34;;;-4.87;70.92
62655;BME280;48717;55.556;37.816;2023-02-19T11:23:45;97507.22;;;-4.81;70.14
62655;BME280;48717;55.556;37.816;2023-02-19T11:26:24;97495.53;;;-5.03;70.20
62655;BME280;48717;55.556;37.816;2023-02-19T11:29:00;97508.44;;;-5.02;70.55
62655;BME280;48717;55.556;37.816;2023-02-19T11:31:30;97508.53;;;-4.99;70.86
62655;BME280;48717;55.556;37.816;2023-02-19T11:39:43;97504.63;;;-5.18;71.24
62655;BME280;48717;55.556;37.816;2023-02-19T11:47:50;97496.59;;;-5.32;70.31
62655;BME280;48717;55.556;37.816;2023-02-19T11:50:59;97493.09;;;-5.69;71.08
62655;BME280;48717;55.556;37.816;2023-02-19T11:53:31;97480.25;;;-6.02;71.49
62655;BME280;48717;55.556;37.816;2023-02-19T11:56:20;97510.03;;;-6.08;71.34
62655;BME280;48717;55.556;37.816;2023-02-19T11:58:58;97500.47;;;-6.16;71.77
62655;BME280;48717;55.556;37.816;2023-02-19T12:01:46;97512.63;;;-6.08;72.10
62655;BME280;48717;55.556;37.816;2023-02-19T12:04:52;97485.81;;;-6.20;72.13
62655;BME280;48717;55.556;37.816;2023-02-19T12:10:14;97491.63;;;-6.25;72.74
62655;BME280;48717;55.556;37.816;2023-02-19T12:13:18;97507.53;;;-6.07;72.94
62655;BME280;48717;55.556;37.816;2023-02-19T12:21:59;97492.69;;;-5.85;71.60
62655;BME280;48717;55.556;37.816;2023-02-19T12:24:49;97494.97;;;-5.96;71.35
62655;BME280;48717;55.556;37.816;2023-02-19T12:30:26;97491.09;;;-6.13;72.47
62655;BME280;48717;55.556;37.816;2023-02-19T12:35:50;97469.16;;;-6.34;73.83
62655;BME280;48717;55.556;37.816;2023-02-19T12:38:36;97508.44;;;-6.35;74.46
62655;BME280;48717;55.556;37.816;2023-02-19T12:46:43;97488.81;;;-6.64;74.83
62655;BME280;48717;55.556;37.816;2023-02-19T12:49:26;97462.47;;;-6.89;75.72
62655;BME280;48717;55.556;37.816;2023-02-19T12:52:00;97506.53;;;-6.72;75.99
62655;BME280;48717;55.556;37.816;2023-02-19T12:54:39;97487.50;;;-6.80;75.77
62655;BME280;48717;55.556;37.816;2023-02-19T12:59:45;97512.81;;;-6.62;76.06
62655;BME280;48717;55.556;37.816;2023-02-19T13:05:36;97523.19;;;-6.59;75.61
62655;BME280;48717;55.556;37.816;2023-02-19T13:10:52;97512.16;;;-6.55;74.97
62655;BME280;48717;55.556;37.816;2023-02-19T13:13:45;97518.22;;;-6.52;75.19
62655;BME280;48717;55.556;37.816;2023-02-19T13:16:16;97517.28;;;-6.55;75.87
62655;BME280;48717;55.556;37.816;2023-02-19T13:18:48;97505.22;;;-6.59;75.90
62655;BME280;48717;55.556;37.816;2023-02-19T13:21:19;97512.72;;;-6.65;76.22
62655;BME280;48717;55.556;37.816;2023-02-19T13:24:13;97507.41;;;-6.71;76.38
62655;BME280;48717;55.556;37.816;2023-02-19T13:33:02;97506.03;;;-6.89;77.46
62655;BME280;48717;55.556;37.816;2023-02-19T13:36:05;97511.78;;;-6.96;78.65
62655;BME280;48717;55.556;37.816;2023-02-19T13:38:45;97502.41;;;-6.96;78.25
62655;BME280;48717;55.556;37.816;2023-02-19T13:41:19;97514.41;;;-6.95;78.79
62655;BME280;48717;55.556;37.816;2023-02-19T13:43:54;97496.28;;;-7.01;79.13
62655;BME280;48717;55.556;37.816;2023-02-19T13:46:23;97507.59;;;-6.94;78.91
62655;BME280;48717;55.556;37.816;2023-02-19T13:51:55;97496.41;;;-6.96;80.25
62655;BME280;48717;55.556;37.816;2023-02-19T13:59:58;97503.09;;;-7.01;80.82
62655;BME280;48717;55.556;37.816;2023-02-19T14:02:33;97496.13;;;-7.05;80.95
62655;BME280;48717;55.556;37.816;2023-02-19T14:05:09;97494.41;;;-7.06;81.51
62655;BME280;48717;55.556;37.816;2023-02-19T14:07:47;97488.25;;;-7.12;81.81
62655;BME280;48717;55.556;37.816;2023-02-19T14:10:50;97481.47;;;-7.10;83.27
62655;BME280;48717;55.556;37.816;2023-02-19T14:30:54;97462.97;;;-7.28;84.19
62655;BME280;48717;55.556;37.816;2023-02-19T14:33:49;97455.75;;;-7.42;85.31
62655;BME280;48717;55.556;37.816;2023-02-19T14:38:56;97469.38;;;-7.43;85.53
62655;BME280;48717;55.556;37.816;2023-02-19T14:41:26;97458.91;;;-7.49;85.19
62655;BME280;48717;55.556;37.816;2023-02-19T14:43:56;97456.22;;;-7.54;85.04
62655;BME280;48717;55.556;37.816;2023-02-19T14:46:40;97474.16;;;-7.52;86.47
62655;BME280;48717;55.556;37.816;2023-02-19T14:49:20;97448.03;;;-7.69;86.71
62655;BME280;48717;55.556;37.816;2023-02-19T14:51:56;97455.88;;;-7.63;85.70
62655;BME280;48717;55.556;37.816;2023-02-19T14:57:16;97466.41;;;-7.55;85.94
62655;BME280;48717;55.556;37.816;2023-02-19T14:59:59;97459.56;;;-7.55;87.14
62655;BME280;48717;55.556;37.816;2023-02-19T15:02:28;97433.56;;;-7.69;86.72
62655;BME280;48717;55.556;37.816;2023-02-19T15:05:00;97465.56;;;-7.54;87.43
62655;BME280;48717;55.556;37.816;2023-02-19T15:07:40;97456.97;;;-7.56;86.73
62655;BME280;48717;55.556;37.816;2023-02-19T15:10:13;97431.66;;;-7.75;87.46
62655;BME280;48717;55.556;37.816;2023-02-19T15:12:57;97456.06;;;-7.58;86.44
62655;BME280;48717;55.556;37.816;2023-02-19T15:15:27;97455.22;;;-7.57;86.72
62655;BME280;48717;55.556;37.816;2023-02-19T15:17:56;97455.22;;;-7.57;86.86
62655;BME280;48717;55.556;37.816;2023-02-19T15:20:27;97463.84;;;-7.55;86.90
62655;BME280;48717;55.556;37.816;2023-02-19T15:22:58;97456.88;;;-7.60;86.16